Sao Francisco do Sul, Brazil
Current Conditions -  °F | °C
As of 4:00 PM on Monday 24 Nov 2014 (Local Time) from SBJV Reporting Station
Broken Clouds Broken Clouds  
Wind Chill: 81°   Ceiling: 4000
Heat Index: 84°   Visibility: 6mi
Dew Point: 70°   Wind: 10mph
Humidity: 70%   Direction: 20°NNE
Pressure: 29.94"   Gusts: NA
Location:  26.24°S, 48.64°W
Report Text: SBJV 241800Z 02009KT 9999 FEW018 BKN040 27/21 Q1014
Loading
Personal Weather Stations






























Interactive Weather Map New forecast layout! Learn more

10-Day Weather Forecast

Advertisements
Track Severe Weather on mobile